METAR Data
IDs: Format: Raw Decoded Include TAF

Data at: 2030 UTC 08 Aug 2020

KFHU 081958Z AUTO 20004KT 10SM FEW100 SCT150 33/09 A3016 RMK AO2 SLP130 T03260086
KFHU 081941Z AUTO 00000KT 10SM CLR 34/09 A3016 RMK AO2 SLP128
KFHU 081858Z AUTO 20007KT 10SM CLR 33/09 A3018 RMK AO2 SLP135 T03340088
KFHU 081837Z AUTO 36004KT 10SM CLR 33/08 A3018 RMK AO2 SLP135
KFHU 081758Z AUTO 00000KT 10SM CLR 32/08 A3020 RMK AO2 SLP142 T03190082 10328 20202 55003
KFHU 081658Z AUTO 08007KT 10SM CLR 31/09 A3021 RMK AO2 SLP145 T03100089
KFHU 081558Z AUTO 00000KT 10SM CLR 29/08 A3021 RMK AO2 SLP148 T02910084
KFHU 081458Z AUTO 00000KT 10SM CLR 28/10 A3021 RMK AO2 SLP148 T02790096 52011
KFHU 081358Z AUTO 12004KT 10SM CLR 24/12 A3020 RMK AO2 SLP149 T02350116
KFHU 081347Z AUTO 00000KT 10SM CLR 23/12 A3020 RMK AO2 SLP149
KFHU 081258Z AUTO 00000KT 8SM CLR 20/11 A3018 RMK AO2 SLP145 T02020108
KFHU 081158Z AUTO 00000KT 10SM CLR 22/11 A3017 RMK AO2 SLP136 T02150105 10254 20215 53004
KFHU 081058Z AUTO 22008KT 10SM CLR 24/10 A3016 RMK AO2 SLP128 T02400097
KFHU 080958Z AUTO 23007KT 10SM CLR 24/08 A3016 RMK AO2 SLP130 T02360081
KFHU 080858Z AUTO 24008KT 10SM CLR 23/09 A3016 RMK AO2 SLP130 T02300088 58003
KFHU 080758Z AUTO 28008KT 10SM CLR 22/09 A3017 RMK AO2 SLP136 T02220094
KFHU 080658Z AUTO 17004KT 10SM CLR 24/09 A3017 RMK AO2 SLP134 T02390089 403350199
KFHU 080558Z AUTO 23009KT 10SM CLR 25/10 A3017 RMK AO2 SLP134 60000 T02500096 10313 20247 50012
KFHU 080458Z AUTO 00000KT 10SM BKN130 26/10 A3017 RMK AO2 SLP134 T02570103
KFHU 080419Z AUTO 00000KT 10SM CLR 27/10 A3018 RMK AO2 SLP140
KFHU 080358Z AUTO 11011KT 10SM BKN130 27/10 A3016 RMK AO2 SLP133 T02680097
KFHU 080337Z AUTO 20004KT 10SM BKN110 OVC130 28/09 A3015 RMK AO2 SLP129
KFHU 080258Z AUTO 22007KT 10SM OVC110 28/11 A3013 RMK AO2 SLP125 60000 T02750106 52006
KFHU 080158Z 17005KT 10SM VCSH FEW100 BKN160 28/11 A3012 RMK AO2A RAE19 SLP124 SH NE AND W P0000 T02830107
KFHU 080119Z 06004KT 10SM VCSH FEW080 BKN120 OVC150 29/11 A3012 RMK AO2A RAE19 LTG DSNT S SLP121 SH N-E
KFHU 080059Z 28017G27KT 8SM -RA OVC110 29/11 A3013 RMK AO2A WSHFT 52 LTG DSNT S SLP125
KFHU 080058Z 27021G27KT 8SM -RA OVC110 30/10 A3012 RMK AO2A PK WND 28027/55 RAB57 LTG DSNT S SLP121 T02980099
KFHU 080057Z 28022G27KT 8SM -RA OVC110 29/10 A3012 RMK AO2A RAB57 LTG DSNT S SLP121
KFHU 072358Z 17005KT 10SM FEW120 SCT150 32/08 A3011 RMK AO2A SLP116 T03160080 10335 20298 57011
KFHU 072258Z 19009G16KT 10SM VCSH FEW110 SCT140 33/09 A3012 RMK AO2A SLP117 SH S T03280094
KFHU 072158Z 17008KT 10SM VCSH BKN120 BKN150 32/09 A3013 RMK AO2A SLP118 SH S T03190086
KFHU 072151Z AUTO 18007KT 10SM BKN120 OVC140 32/08 A3013 RMK AO2 SLP118
KFHU 072058Z AUTO 19007KT 10SM SCT110 BKN150 32/09 A3015 RMK AO2 SLP122 T03160086 57010
KFHU 071958Z AUTO 16007KT 10SM BKN120 31/08 A3016 RMK AO2 SLP128 T03140083
KFHU 071858Z AUTO 00000KT 10SM OVC130 31/09 A3017 RMK AO2 SLP132 T03120088
KFHU 071758Z AUTO 14003KT 10SM FEW130 31/08 A3018 RMK AO2 SLP135 T03070082 10311 20202 58000
KFHU 071658Z AUTO 29007KT 10SM SCT100 BKN140 BKN170 28/11 A3018 RMK AO2 SLP135 T02820107
KFHU 071558Z AUTO 18005KT 10SM OVC110 26/12 A3019 RMK AO2 SLP143 T02550116
KFHU 071458Z AUTO 15008KT 9SM BKN100 25/12 A3018 RMK AO2 SLP140 T02490122 52019
KFHU 071432Z AUTO 16004KT 9SM CLR 25/14 A3017 RMK AO2 SLP136
KFHU 071358Z AUTO 15003KT 8SM FEW160 23/13 A3015 RMK AO2 SLP129 T02250131
KFHU 071342Z AUTO 00000KT 8SM BKN160 22/13 A3015 RMK AO2 SLP129
KFHU 071258Z AUTO 00000KT 8SM SCT120 OVC160 22/13 A3013 RMK AO2 SLP125 T02160127
KFHU 071158Z COR 00000KT 9SM FEW100 21/13 A3012 RMK AO2 SLP121 T02100133 10275 20199 53004 COR 1200
KFHU 071058Z AUTO 34005KT 9SM CLR 22/12 A3011 RMK AO2 SLP113 T02210118
KFHU 070958Z AUTO 08003KT 10SM CLR 26/09 A3011 RMK AO2 SLP108 T02610087
KFHU 070858Z 22009KT 10SM FEW110 27/10 A3011 RMK AO2A SLP107 T02680095 58004